Latest Weather Observations for Cairns Racecourse

IDQ60801

Issued at 9:02 pm EST Tuesday 24 October 2017 (issued every 30 minutes, with the page automatically refreshed every 10 minutes)

About weather observations | Map of weather stations | Latest weather observations for QLD | Other Formats
Station Details ID: 031222 Name: CAIRNS RACECOURSE Lat: -16.95 Lon: 145.75 Height: 4.1 m
Data from the previous 72 hours. | See also: Recent months at Cairns Racecourse
Date/Time
EST
Temp
°C
App
Temp
°C
Dew
Point
°C
Rel
Hum
%
Delta-T
°C
Wind Press
QNH
hPa
Press
MSL
hPa
Rain since
9am
mm
Dir  Spd
km/h
Gust
km/h
Spd
kts
Gust
kts
24/09:00pm 23.8 26.3 20.3 81 2.3 SSE 7 9 4 5 - - 0.0
24/08:30pm 24.2 26.8 20.5 80 2.4 S 7 11 4 6 - - 0.0
24/08:00pm 24.2 26.8 20.5 80 2.4 SSE 7 11 4 6 - - 0.0
24/07:30pm 24.6 27.7 20.3 77 2.8 SSE 4 9 2 5 - - 0.0
24/07:00pm 25.1 27.4 20.6 76 2.9 SE 9 15 5 8 - - 0.0
24/06:30pm 25.2 27.4 20.5 75 3.1 SE 9 15 5 8 - - 0.0
24/06:00pm 25.8 26.7 20.1 71 3.7 SE 15 20 8 11 - - 0.0
24/05:30pm 26.5 26.8 19.6 66 4.5 SE 17 26 9 14 - - 0.0
24/05:00pm 27.4 27.1 19.2 61 5.3 SE 19 30 10 16 - - 0.0
24/04:30pm 27.9 27.3 18.9 58 5.8 SE 20 28 11 15 - - 0.0
24/04:00pm 28.7 28.1 18.5 54 6.5 ESE 19 26 10 14 - - 0.0
24/03:30pm 28.9 28.0 18.1 52 6.9 SE 20 26 11 14 - - 0.0
24/03:00pm 29.0 28.6 19.0 54 6.5 SE 19 26 10 14 - - 0.0
24/02:30pm 29.4 29.7 19.7 56 6.3 ESE 17 22 9 12 - - 0.0
24/02:00pm 29.4 29.2 18.5 52 7.0 SE 17 22 9 12 - - 0.0
24/01:30pm 29.2 28.8 18.0 51 7.1 SE 17 28 9 15 - - 0.0
24/01:00pm 28.9 29.7 21.4 64 5.0 ESE 19 30 10 16 - - 0.0
24/12:30pm 27.8 29.0 19.8 61 5.2 SSE 13 22 7 12 - - 0.0
24/12:00pm 27.3 29.6 19.9 64 4.8 NNE 7 15 4 8 - - 0.0
24/11:30am 28.7 31.9 21.2 64 5.0 NNE 6 11 3 6 - - 0.0
24/11:00am 27.8 30.2 20.9 66 4.6 E 9 22 5 12 - - 0.0
24/10:30am 27.4 29.9 21.0 68 4.2 ESE 9 17 5 9 - - 0.0
24/10:00am 27.2 29.7 21.0 69 4.1 E 9 15 5 8 - - 0.0
24/09:30am 26.8 29.1 20.6 69 4.1 SSE 9 13 5 7 - - 0.0
24/09:00am 25.9 29.1 21.6 77 2.9 SSE 7 15 4 8 - - 0.0
24/08:30am 24.6 27.4 21.5 83 2.1 SE 9 11 5 6 - - 0.0
24/08:00am 24.2 27.1 21.1 83 2.0 SSE 7 13 4 7 - - 0.0
24/07:30am 22.6 25.3 20.7 89 1.2 S 7 11 4 6 - - 0.0
24/07:00am 21.2 23.8 20.4 95 0.5 S 7 11 4 6 - - 0.0
24/06:30am 20.6 23.1 19.9 96 0.4 SSE 6 9 3 5 - - 0.0
24/06:00am 20.4 22.6 19.7 96 0.4 SSE 7 11 4 6 - - 0.0
24/05:30am 20.4 24.0 19.7 96 0.4 CALM 0 0 0 0 - - 0.0
24/05:00am 20.4 23.9 19.6 95 0.5 CALM 0 0 0 0 - - 0.0
24/04:30am 20.6 23.1 19.8 95 0.5 S 6 7 3 4 - - 0.0
24/04:00am 20.7 23.2 19.9 95 0.5 S 6 7 3 4 - - 0.0
24/03:30am 20.7 23.2 19.9 95 0.5 SSW 6 9 3 5 - - 0.0
24/03:00am 20.9 23.4 19.9 94 0.6 SSW 6 9 3 5 - - 0.0
24/02:30am 21.1 24.5 20.1 94 0.6 SSE 2 7 1 4 - - 0.0
24/02:00am 21.3 25.1 20.1 93 0.8 CALM 0 0 0 0 - - 0.0
24/01:30am 21.4 25.2 20.2 93 0.8 CALM 0 0 0 0 - - 0.0
24/01:00am 21.6 25.1 20.4 93 0.8 SSE 2 9 1 5 - - 0.0
24/12:30am 21.7 24.4 20.3 92 0.9 S 6 6 3 3 - - 0.0
24/12:00am 22.0 25.6 20.5 91 1.0 SSW 2 6 1 3 - - 0.0
 
Date/Time
EST
Temp
°C
App
Temp
°C
Dew
Point
°C
Rel
Hum
%
Delta-T
°C
Wind Press
QNH
hPa
Press
MSL
hPa
Rain since
9am
mm
Dir  Spd
km/h
Gust
km/h
Spd
kts
Gust
kts
23/11:30pm 22.2 25.1 20.7 91 1.0 S 6 9 3 5 - - 0.0
23/11:00pm 22.5 25.4 21.0 91 1.0 S 7 9 4 5 - - 0.0
23/10:30pm 22.6 26.0 20.9 90 1.1 SE 4 7 2 4 - - 0.0
23/10:00pm 23.1 26.7 21.2 89 1.2 WSW 4 7 2 4 - - 0.0
23/09:30pm 23.0 26.5 21.1 89 1.2 SW 4 7 2 4 - - 0.0
23/09:00pm 23.2 27.5 21.1 88 1.4 CALM 0 0 0 0 - - 0.0
23/08:30pm 23.3 27.5 21.0 87 1.5 CALM 0 0 0 0 - - 0.0
23/08:00pm 24.1 27.0 21.0 83 2.0 SSW 7 9 4 5 - - 0.0
23/07:30pm 24.4 27.1 21.3 83 2.0 S 9 13 5 7 - - 0.0
23/07:00pm 24.6 27.7 21.1 81 2.3 SSE 6 9 3 5 - - 0.0
23/06:30pm 25.0 27.8 20.9 78 2.7 S 7 11 4 6 - - 0.0
23/06:00pm 25.5 28.4 21.0 76 3.0 S 7 15 4 8 - - 0.0
23/05:30pm 26.0 27.9 20.6 72 3.5 SE 11 19 6 10 - - 0.0
23/05:00pm 27.7 29.1 20.3 64 4.9 SE 13 19 7 10 - - 0.0
23/04:30pm 27.5 28.0 20.1 64 4.8 SE 17 20 9 11 - - 0.0
23/04:00pm 28.0 28.9 20.0 61 5.2 ESE 15 24 8 13 - - 0.0
23/03:30pm 28.7 29.0 20.4 60 5.5 SE 19 28 10 15 - - 0.0
23/03:00pm 29.3 29.7 19.9 57 6.2 SE 17 28 9 15 - - 0.0
23/02:30pm 29.1 30.8 19.4 55 6.3 ESE 9 15 5 8 - - 0.0
23/02:00pm 29.6 31.8 20.5 58 6.0 N 9 20 5 11 - - 0.0
23/01:30pm 29.5 31.3 20.4 58 6.0 N 11 19 6 10 - - 0.0
23/01:00pm 29.8 32.4 21.2 60 5.7 NNE 9 15 5 8 - - 0.0
23/12:30pm 30.1 32.7 20.4 56 6.4 ESE 7 13 4 7 - - 0.0
23/12:00pm 29.3 31.5 20.5 59 5.8 SE 9 17 5 9 - - 0.0
23/11:30am 29.0 31.2 20.4 59 5.7 SE 9 17 5 9 - - 0.0
23/11:00am 28.9 30.7 21.1 62 5.2 ESE 13 19 7 10 - - 0.0
23/10:30am 28.1 29.8 20.1 62 5.2 SE 11 17 6 9 - - 0.0
23/10:00am 27.4 29.3 20.5 66 4.5 S 11 17 6 9 - - 0.0
23/09:30am 26.8 29.3 21.1 71 3.8 S 9 15 5 8 - - 0.0
23/09:00am 25.6 27.8 21.1 76 3.0 S 11 17 6 9 - - 6.0
23/08:30am 24.1 26.6 21.0 83 2.0 SSE 9 11 5 6 - - 6.0
23/08:00am 22.9 25.7 20.8 88 1.4 S 7 11 4 6 - - 6.0
23/07:30am 22.6 25.6 20.9 90 1.1 E 6 7 3 4 - - 6.0
23/07:00am 21.6 24.4 20.8 95 0.5 S 7 9 4 5 - - 6.0
23/06:30am 20.9 23.4 20.2 96 0.4 SSE 7 9 4 5 - - 6.0
23/06:00am 20.8 23.3 20.3 97 0.3 SSE 7 9 4 5 - - 6.0
23/05:30am 20.9 23.7 20.4 97 0.3 SE 6 9 3 5 - - 6.0
23/05:00am 21.2 23.9 20.7 97 0.3 S 7 11 4 6 - - 6.0
23/04:30am 21.2 24.0 20.5 96 0.5 S 6 9 3 5 - - 6.0
23/04:00am 21.3 24.2 20.6 96 0.5 S 6 9 3 5 - - 6.0
23/03:30am 21.6 24.1 21.1 97 0.3 SSE 9 11 5 6 - - 6.0
23/03:00am 21.6 24.4 20.9 96 0.5 SE 7 9 4 5 - - 6.0
23/02:30am 21.7 24.6 21.0 96 0.5 SSE 7 11 4 6 - - 6.0
23/02:00am 21.9 24.9 21.2 96 0.5 S 7 9 4 5 - - 6.0
23/01:30am 22.1 25.7 21.3 95 0.5 S 4 7 2 4 - - 6.0
23/01:00am 22.1 26.5 21.3 95 0.5 CALM 0 0 0 0 - - 6.0
23/12:30am 22.1 26.5 21.3 95 0.5 CALM 0 0 0 0 - - 6.0
23/12:00am 22.2 25.3 21.4 95 0.5 SSW 7 7 4 4 - - 6.0
 
Date/Time
EST
Temp
°C
App
Temp
°C
Dew
Point
°C
Rel
Hum
%
Delta-T
°C
Wind Press
QNH
hPa
Press
MSL
hPa
Rain since
9am
mm
Dir  Spd
km/h
Gust
km/h
Spd
kts
Gust
kts
22/11:30pm 22.2 25.5 21.4 95 0.5 WSW 6 9 3 5 - - 6.0
22/11:00pm 22.2 26.5 21.2 94 0.7 CALM 0 0 0 0 - - 6.0
22/10:30pm 22.2 25.2 20.8 92 0.9 SW 6 11 3 6 - - 5.8
22/10:00pm 22.5 26.8 21.1 92 0.9 CALM 0 0 0 0 - - 5.4
22/09:30pm 22.8 27.1 21.1 90 1.1 CALM 0 0 0 0 - - 5.4
22/09:00pm 22.9 25.8 21.0 89 1.2 S 7 11 4 6 - - 5.4
22/08:30pm 22.9 25.8 21.0 89 1.2 S 7 11 4 6 - - 5.4
22/08:00pm 23.0 25.4 20.9 88 1.4 SSW 9 13 5 7 - - 5.4
22/07:30pm 22.9 26.5 21.2 90 1.1 SSW 4 9 2 5 - - 5.4
22/07:00pm 22.8 25.7 21.1 90 1.1 SSW 7 11 4 6 - - 5.4
22/06:30pm 22.9 25.8 21.7 93 0.8 SSW 9 13 5 7 - - 5.4
22/06:00pm 23.1 25.7 21.9 93 0.8 S 11 17 6 9 - - 5.4
22/05:30pm 23.0 26.0 22.0 94 0.7 S 9 13 5 7 - - 5.4
22/05:00pm 22.9 25.9 21.9 94 0.7 S 9 13 5 7 - - 5.4
22/04:30pm 23.0 25.3 22.0 94 0.7 S 13 19 7 10 - - 2.8
22/04:00pm 23.5 25.7 21.9 91 1.1 SSW 13 20 7 11 - - 0.2
22/03:30pm 24.6 26.9 22.1 86 1.7 SSW 13 17 7 9 - - 0.0
22/03:00pm 25.3 26.7 21.0 77 2.8 SSE 15 22 8 12 - - 0.0
22/02:30pm 26.5 29.2 21.3 73 3.4 SSE 9 20 5 11 - - 0.0
22/02:00pm 26.8 30.0 23.1 80 2.5 S 11 17 6 9 - - 0.0
22/01:30pm 25.5 27.3 21.8 80 2.5 S 15 20 8 11 - - 0.0
22/01:00pm 25.8 27.5 21.0 75 3.2 SE 13 20 7 11 - - 0.0
22/12:30pm 25.4 27.3 20.6 75 3.1 SSE 11 19 6 10 - - 0.0
22/12:00pm 25.0 26.8 21.1 79 2.6 SE 13 19 7 10 - - 0.0
22/11:30am 24.4 26.5 21.7 85 1.8 ESE 13 20 7 11 - - 0.0
22/11:00am 24.1 25.7 22.2 89 1.3 ESE 17 20 9 11 - - 0.0
22/10:30am 25.0 27.0 21.5 81 2.3 ESE 13 17 7 9 - - 0.0
22/10:00am 24.8 27.6 21.5 82 2.2 SE 9 11 5 6 - - 0.0
22/09:30am 24.0 26.4 20.9 83 2.0 S 9 13 5 7 - - 0.0
22/09:00am 23.2 25.5 21.3 89 1.2 SSE 11 13 6 7 - - 14.2
22/08:30am 22.2 24.6 20.8 92 0.9 SSE 9 15 5 8 - - 14.2
22/08:00am 21.8 23.8 20.8 94 0.6 SSE 11 17 6 9 - - 14.2
22/07:30am 21.4 23.8 20.9 97 0.3 SSE 9 13 5 7 - - 14.2
22/07:00am 21.2 23.9 20.7 97 0.3 SSE 7 11 4 6 - - 14.2
22/06:30am 21.0 23.6 20.5 97 0.3 S 7 9 4 5 - - 14.2
22/06:00am 20.8 23.5 20.3 97 0.3 SSE 6 9 3 5 - - 14.0
22/05:30am 20.8 23.5 20.3 97 0.3 S 6 9 3 5 - - 12.8
22/05:00am 20.7 23.4 20.2 97 0.3 SSE 6 7 3 4 - - 12.2
22/04:30am 20.8 23.3 20.3 97 0.3 SSE 7 11 4 6 - - 11.6
22/04:00am 21.0 23.5 20.3 96 0.4 SE 7 11 4 6 - - 9.0
22/03:30am 21.0 22.8 20.3 96 0.4 SE 11 15 6 8 - - 8.2
22/03:00am 21.2 23.1 20.5 96 0.5 S 11 13 6 7 - - 5.8
22/02:30am 21.3 23.2 20.5 95 0.5 SSE 11 17 6 9 - - 5.6
22/02:00am 21.5 23.4 20.5 94 0.6 SSE 11 20 6 11 - - 5.6
22/01:30am 21.9 24.2 20.7 93 0.8 S 9 11 5 6 - - 4.8
22/01:00am 21.8 24.2 20.8 94 0.6 SSW 9 13 5 7 - - 4.6
22/12:30am 22.0 24.6 21.2 95 0.5 S 9 11 5 6 - - 4.6
22/12:00am 22.1 25.0 21.1 94 0.7 S 7 9 4 5 - - 4.6
 
Date/Time
EST
Temp
°C
App
Temp
°C
Dew
Point
°C
Rel
Hum
%
Delta-T
°C
Wind Press
QNH
hPa
Press
MSL
hPa
Rain since
9am
mm
Dir  Spd
km/h
Gust
km/h
Spd
kts
Gust
kts
21/11:30pm 21.9 26.1 20.9 94 0.7 CALM 0 0 0 0 - - 4.6
21/11:00pm 21.9 26.1 20.9 94 0.7 CALM 0 0 0 0 - - 4.4
21/10:30pm 22.0 26.1 20.8 93 0.8 CALM 0 0 0 0 - - 4.4
21/10:00pm 22.1 26.3 20.9 93 0.8 CALM 0 0 0 0 - - 4.4
21/09:30pm 21.9 25.9 20.5 92 0.9 CALM 0 0 0 0 - - 4.4

Other Formats:

Comma delimited format used in spreadsheet applications
http://www.bom.gov.au/fwo/IDQ60801/IDQ60801.94288.axf

JavaScript Object Notation format (JSON) in row-major order
http://www.bom.gov.au/fwo/IDQ60801/IDQ60801.94288.json